Time;durP1;ratioP1;P1;durP2;ratioP2;P2;SDS_P1;SDS_P2;PMS_P1;PMS_P2;Temp;Humidity;BMP_temperature;BMP_pressure;BME280_temperature;BME280_humidity;BME280_pressure;Samples;Min_cycle;Max_cycle;Signal;HPM_P1;HPM_P2
2022/05/28 03:09:04;;;;;;;11.07;3.50;;;12.20;99.90;;;;;;4911387;29;20230;-82
2022/05/28 03:11:35;;;;;;;7.10;3.65;;;12.20;99.90;;;;;;4918881;29;20581;-83
2022/05/28 03:14:12;;;;;;;11.27;3.78;;;12.10;99.90;;;;;;4909003;29;20214;-82
2022/05/28 03:33:44;;;;;;;9.20;3.65;;;12.30;99.90;;;;;;4943266;29;20229;-80
2022/05/28 03:36:13;;;;;;;9.68;3.97;;;12.30;99.90;;;;;;4940412;29;20209;-80
2022/05/28 03:38:40;;;;;;;10.82;3.70;;;12.40;99.90;;;;;;4927938;29;20484;-80
2022/05/28 03:41:08;;;;;;;7.03;3.53;;;12.30;99.90;;;;;;4930154;29;20207;-80
2022/05/28 03:43:35;;;;;;;6.78;3.58;;;12.30;99.90;;;;;;4930900;29;20213;-79
2022/05/28 03:46:04;;;;;;;8.52;3.50;;;12.30;99.90;;;;;;4905182;29;20214;-80
2022/05/28 03:48:33;;;;;;;10.57;3.75;;;12.30;99.90;;;;;;4924641;29;20223;-79
2022/05/28 03:51:02;;;;;;;9.63;4.28;;;12.20;99.90;;;;;;4921904;29;20215;-79
2022/05/28 03:53:29;;;;;;;9.32;3.75;;;12.20;99.90;;;;;;4924948;29;20644;-80
2022/05/28 03:55:58;;;;;;;11.45;4.72;;;12.30;99.90;;;;;;4921377;29;20195;-79
2022/05/28 03:58:25;;;;;;;11.27;4.75;;;12.10;99.90;;;;;;4920212;29;20220;-79
2022/05/28 04:00:53;;;;;;;7.80;3.90;;;12.20;99.90;;;;;;4929074;29;20206;-80
2022/05/28 04:03:20;;;;;;;11.40;4.05;;;12.10;99.90;;;;;;4926424;29;20210;-79
2022/05/28 04:05:48;;;;;;;9.88;3.97;;;12.20;99.90;;;;;;4925385;29;20199;-80
2022/05/28 04:08:17;;;;;;;8.77;3.78;;;12.20;99.90;;;;;;4922364;29;20246;-80
2022/05/28 04:10:44;;;;;;;12.48;4.03;;;12.30;99.90;;;;;;4926089;29;20199;-80
2022/05/28 04:13:12;;;;;;;14.02;5.15;;;12.30;99.90;;;;;;4922887;29;20203;-80
2022/05/28 04:15:39;;;;;;;10.45;3.97;;;12.20;99.90;;;;;;4922046;29;20211;-80
2022/05/28 04:18:07;;;;;;;12.20;4.65;;;12.20;99.90;;;;;;4922545;29;20225;-79
2022/05/28 04:20:35;;;;;;;9.57;4.18;;;12.10;99.90;;;;;;4925366;29;20214;-80
2022/05/28 04:23:02;;;;;;;10.80;3.70;;;12.10;99.90;;;;;;4923584;29;20199;-80
2022/05/28 04:25:31;;;;;;;10.37;4.30;;;12.10;99.90;;;;;;4923964;29;20207;-80
2022/05/28 04:27:59;;;;;;;8.48;3.75;;;12.10;99.90;;;;;;4922188;29;20231;-79
2022/05/28 04:30:27;;;;;;;9.05;4.28;;;12.10;99.90;;;;;;4921595;29;20198;-79
2022/05/28 04:32:54;;;;;;;10.20;4.22;;;12.20;99.90;;;;;;4927991;29;20219;-79
2022/05/28 04:35:21;;;;;;;10.43;4.28;;;12.10;99.90;;;;;;4923601;29;20207;-79
2022/05/28 04:37:49;;;;;;;10.57;4.63;;;12.10;99.90;;;;;;4924297;29;20219;-80
2022/05/28 04:40:17;;;;;;;9.87;3.80;;;12.20;99.90;;;;;;4925415;29;20214;-80
2022/05/28 04:42:46;;;;;;;10.48;4.30;;;12.10;99.90;;;;;;4922579;29;20681;-80
2022/05/28 04:45:13;;;;;;;9.00;4.10;;;12.20;99.90;;;;;;4919946;29;20217;-80
2022/05/28 04:47:40;;;;;;;8.10;3.63;;;12.20;99.90;;;;;;4924380;29;20219;-80
2022/05/28 04:50:09;;;;;;;8.35;3.90;;;12.30;99.90;;;;;;4908050;29;20214;-79
2022/05/28 04:52:38;;;;;;;8.70;3.40;;;12.20;99.90;;;;;;4922101;29;20276;-79
2022/05/28 04:55:07;;;;;;;9.40;4.13;;;12.10;99.90;;;;;;4906488;29;20203;-79
2022/05/28 04:57:35;;;;;;;10.43;3.17;;;12.10;99.90;;;;;;4925287;29;20215;-79
2022/05/28 05:00:05;;;;;;;11.93;3.42;;;12.20;99.90;;;;;;4924106;29;20207;-79
2022/05/28 05:02:32;;;;;;;13.35;3.45;;;12.30;99.90;;;;;;4916429;29;20206;-80
2022/05/28 05:05:00;;;;;;;9.35;3.33;;;12.30;99.90;;;;;;4923740;29;20217;-81
2022/05/28 05:07:29;;;;;;;11.20;3.88;;;12.50;99.90;;;;;;4925692;29;20222;-81
2022/05/28 05:09:57;;;;;;;6.80;3.10;;;12.50;99.90;;;;;;4926871;29;20203;-80
2022/05/28 05:12:25;;;;;;;8.25;2.63;;;12.60;99.90;;;;;;4921321;29;20215;-80
2022/05/28 05:14:52;;;;;;;8.00;3.22;;;12.50;99.90;;;;;;4923871;29;20203;-80
2022/05/28 05:17:21;;;;;;;8.50;2.90;;;12.60;99.90;;;;;;4917008;29;20227;-81
2022/05/28 05:19:48;;;;;;;10.82;2.70;;;12.60;99.90;;;;;;4926845;29;20199;-81
2022/05/28 05:22:16;;;;;;;5.68;2.67;;;12.50;99.90;;;;;;4928927;29;20206;-80
2022/05/28 05:24:43;;;;;;;10.18;3.55;;;12.60;99.90;;;;;;4925641;29;20203;-80
2022/05/28 05:27:11;;;;;;;6.03;2.53;;;12.70;99.90;;;;;;4926500;29;20241;-80
2022/05/28 05:29:40;;;;;;;7.32;2.80;;;12.60;99.90;;;;;;4928635;29;20214;-81
2022/05/28 05:32:08;;;;;;;8.45;2.75;;;12.70;99.90;;;;;;4925220;29;20217;-81
2022/05/28 05:34:37;;;;;;;7.75;2.40;;;12.80;99.90;;;;;;4924534;29;20203;-81
2022/05/28 05:37:06;;;;;;;7.95;2.47;;;12.70;99.90;;;;;;4924918;29;20199;-81
2022/05/28 05:39:33;;;;;;;5.57;2.50;;;12.80;99.90;;;;;;4926362;29;20214;-80
2022/05/28 05:42:01;;;;;;;6.43;2.35;;;12.70;99.90;;;;;;4926861;29;20207;-80
2022/05/28 05:44:28;;;;;;;8.13;2.13;;;12.60;99.90;;;;;;4923659;29;20199;-80
2022/05/28 05:46:56;;;;;;;6.60;2.40;;;12.60;99.90;;;;;;4928657;29;20207;-80
2022/05/28 05:49:23;;;;;;;5.85;1.90;;;12.70;99.90;;;;;;4911871;29;20211;-81
2022/05/28 05:51:52;;;;;;;6.38;2.65;;;12.60;99.90;;;;;;4929668;29;20219;-80
2022/05/28 05:54:27;;;;;;;7.70;2.20;;;12.60;99.90;;;;;;4924380;29;20211;-81
2022/05/28 05:56:54;;;;;;;8.27;2.00;;;12.70;99.90;;;;;;4933026;29;20213;-80
2022/05/28 05:59:22;;;;;;;7.00;2.08;;;12.80;99.90;;;;;;4927766;29;20288;-80
2022/05/28 06:01:50;;;;;;;4.70;2.27;;;12.70;99.90;;;;;;4905879;29;20210;-81
2022/05/28 06:04:17;;;;;;;6.13;1.63;;;12.60;99.90;;;;;;4926939;29;20203;-80
2022/05/28 06:06:47;;;;;;;4.45;2.03;;;12.70;99.90;;;;;;4917414;29;20211;-80
2022/05/28 06:09:16;;;;;;;5.53;1.67;;;12.80;99.90;;;;;;4921771;29;20231;-80
2022/05/28 06:11:56;;;;;;;7.20;2.30;;;12.80;99.90;;;;;;4928999;29;20203;-81
2022/05/28 06:14:23;;;;;;;5.35;1.45;;;12.90;99.90;;;;;;4924744;29;20676;-81
2022/05/28 06:16:51;;;;;;;6.90;1.40;;;12.90;99.90;;;;;;4922858;29;20209;-81
2022/05/28 06:19:18;;;;;;;5.75;1.52;;;13.00;99.90;;;;;;4927106;29;20203;-81
2022/05/28 06:21:46;;;;;;;7.93;2.08;;;13.10;99.90;;;;;;4926552;29;20203;-81
2022/05/28 06:24:13;;;;;;;4.90;1.95;;;13.10;99.90;;;;;;4923167;29;20208;-81
2022/05/28 06:26:42;;;;;;;4.88;1.85;;;13.10;99.90;;;;;;4925456;29;20207;-81
2022/05/28 06:29:09;;;;;;;2.47;1.45;;;13.10;99.90;;;;;;4923241;29;20219;-80
2022/05/28 06:31:37;;;;;;;6.65;1.58;;;13.10;99.90;;;;;;4923534;29;20203;-80
2022/05/28 06:34:04;;;;;;;5.03;1.75;;;13.00;99.90;;;;;;4928623;29;20208;-80
2022/05/28 06:36:32;;;;;;;4.25;0.95;;;13.20;99.90;;;;;;4926145;29;20210;-80
2022/05/28 06:39:00;;;;;;;5.10;1.30;;;13.30;99.90;;;;;;4914060;29;20226;-81
2022/05/28 06:41:28;;;;;;;2.58;1.25;;;13.30;99.90;;;;;;4921404;29;20293;-80
2022/05/28 06:43:57;;;;;;;3.13;1.50;;;13.30;99.90;;;;;;4925295;29;20207;-80
2022/05/28 06:46:24;;;;;;;6.47;1.58;;;13.40;99.90;;;;;;4927206;29;20218;-80
2022/05/28 06:48:52;;;;;;;3.00;1.05;;;13.30;99.90;;;;;;4921480;29;20234;-79
2022/05/28 06:51:19;;;;;;;5.13;1.30;;;13.20;99.20;;;;;;4921969;29;20575;-79
2022/05/28 06:53:48;;;;;;;2.90;1.27;;;13.30;99.30;;;;;;4922179;29;20211;-79
2022/05/28 06:56:18;;;;;;;5.90;1.13;;;13.30;99.30;;;;;;4921774;29;20199;-79
2022/05/28 06:58:46;;;;;;;4.97;1.38;;;13.30;98.30;;;;;;4918044;29;20234;-79
2022/05/28 07:01:17;;;;;;;3.42;1.25;;;13.40;98.00;;;;;;4920275;29;20210;-79
2022/05/28 07:03:44;;;;;;;3.50;1.00;;;13.30;98.30;;;;;;4927361;29;20205;-80
2022/05/28 07:06:13;;;;;;;4.55;1.20;;;13.40;98.50;;;;;;4926439;29;20231;-83
2022/05/28 07:08:41;;;;;;;4.45;1.20;;;13.40;98.70;;;;;;4926596;29;20219;-80
2022/05/28 07:11:10;;;;;;;5.18;1.27;;;13.30;98.70;;;;;;4924539;29;20199;-80
2022/05/28 07:13:38;;;;;;;8.20;1.48;;;13.30;98.80;;;;;;4927500;29;20837;-80
2022/05/28 07:16:08;;;;;;;6.93;1.38;;;13.40;99.20;;;;;;4923575;29;20210;-82
2022/05/28 07:18:37;;;;;;;3.70;1.55;;;13.20;98.70;;;;;;4922964;29;20309;-80
2022/05/28 07:21:11;;;;;;;4.68;1.70;;;13.30;99.60;;;;;;4924506;29;20231;-80
2022/05/28 07:23:39;;;;;;;3.28;1.20;;;13.40;99.70;;;;;;4908758;29;20207;-80
2022/05/28 07:26:08;;;;;;;5.18;1.33;;;13.60;99.60;;;;;;4923160;29;20210;-80
2022/05/28 07:28:37;;;;;;;7.25;1.77;;;13.80;99.30;;;;;;4920477;29;20231;-80
2022/05/28 07:31:07;;;;;;;3.45;1.23;;;13.80;98.60;;;;;;4924093;29;20207;-80
2022/05/28 07:33:38;;;;;;;5.55;1.52;;;13.90;98.70;;;;;;4928410;29;20211;-82
2022/05/28 07:36:07;;;;;;;6.95;1.52;;;13.70;97.80;;;;;;4920834;29;20210;-80
2022/05/28 07:38:36;;;;;;;5.28;1.30;;;13.80;98.30;;;;;;4926257;29;20223;-80
2022/05/28 07:41:08;;;;;;;5.10;1.70;;;13.70;97.40;;;;;;4922648;29;20214;-80
2022/05/28 07:43:36;;;;;;;4.95;1.35;;;13.60;97.20;;;;;;4924708;29;20203;-80
2022/05/28 07:46:12;;;;;;;4.55;1.20;;;13.60;96.40;;;;;;4925205;29;20211;-80
2022/05/28 07:48:41;;;;;;;3.78;1.20;;;13.50;95.80;;;;;;4922563;29;20229;-80
2022/05/28 07:51:09;;;;;;;5.40;1.70;;;13.60;95.40;;;;;;4921562;29;20200;-80
2022/05/28 07:53:37;;;;;;;3.63;1.30;;;13.90;95.20;;;;;;4922358;29;20213;-80
2022/05/28 07:56:05;;;;;;;5.07;1.40;;;14.00;95.10;;;;;;4923580;29;20218;-81
2022/05/28 07:58:33;;;;;;;4.13;1.98;;;14.10;95.40;;;;;;4924588;29;20226;-79
2022/05/28 08:01:01;;;;;;;5.00;1.67;;;14.30;95.20;;;;;;4924488;29;20211;-80
2022/05/28 08:03:30;;;;;;;3.30;1.63;;;14.20;95.10;;;;;;4917462;29;20203;-80
2022/05/28 08:05:59;;;;;;;4.60;1.63;;;14.40;95.40;;;;;;4923801;29;20206;-80
2022/05/28 08:08:37;;;;;;;2.45;0.95;;;14.30;95.20;;;;;;4924030;29;20214;-79
2022/05/28 08:11:04;;;;;;;5.03;1.48;;;14.10;93.80;;;;;;4916209;29;20589;-80
2022/05/28 08:13:32;;;;;;;5.00;1.48;;;14.30;93.70;;;;;;4921632;29;20214;-80
2022/05/28 08:16:01;;;;;;;6.13;1.35;;;14.40;93.60;;;;;;4926848;29;20215;-80
2022/05/28 08:18:29;;;;;;;4.45;1.75;;;14.60;92.50;;;;;;4916601;29;20720;-80
2022/05/28 08:23:45;;;;;;;5.40;1.63;;;14.50;92.00;;;;;;4918804;29;20207;-80
2022/05/28 08:26:15;;;;;;;6.18;1.30;;;14.50;91.70;;;;;;4922679;29;20207;-79
2022/05/28 08:28:43;;;;;;;1.92;1.10;;;14.60;91.60;;;;;;4920530;29;20226;-80
2022/05/28 08:31:10;;;;;;;6.82;1.98;;;14.70;91.20;;;;;;4907192;29;20650;-81
2022/05/28 08:33:38;;;;;;;6.47;1.50;;;14.30;91.00;;;;;;4920671;29;20217;-79
2022/05/28 08:36:07;;;;;;;3.40;1.27;;;14.30;91.30;;;;;;4920421;29;20712;-79
2022/05/28 08:38:35;;;;;;;5.93;1.75;;;14.50;91.70;;;;;;4919853;29;20219;-79
2022/05/28 08:41:07;;;;;;;6.25;1.38;;;14.50;92.60;;;;;;4919803;29;20206;-78
2022/05/28 08:43:39;;;;;;;3.35;1.50;;;14.40;93.90;;;;;;4921599;29;20210;-79
2022/05/28 08:46:09;;;;;;;4.60;1.45;;;14.20;94.80;;;;;;4920096;29;20195;-79
2022/05/28 08:48:43;;;;;;;5.80;1.50;;;14.00;95.50;;;;;;4918700;29;20218;-78
2022/05/28 08:51:32;;;;;;;5.72;1.60;;;14.00;95.50;;;;;;4902031;29;20666;-78
2022/05/28 08:54:02;;;;;;;4.05;1.90;;;13.90;94.90;;;;;;4897237;29;20208;-78
2022/05/28 08:56:31;;;;;;;8.43;1.95;;;14.00;95.40;;;;;;4912412;29;20222;-78
2022/05/28 08:59:04;;;;;;;4.10;1.60;;;14.10;95.40;;;;;;4915967;29;20230;-78
2022/05/28 09:01:34;;;;;;;5.00;1.27;;;14.10;95.00;;;;;;4916109;29;20214;-78
2022/05/28 09:04:05;;;;;;;5.07;1.27;;;14.50;95.10;;;;;;4915063;29;20210;-78
2022/05/28 09:06:38;;;;;;;4.93;1.48;;;14.70;93.70;;;;;;4915339;29;20233;-78
2022/05/28 09:09:09;;;;;;;3.13;1.42;;;14.80;91.90;;;;;;4919653;29;20238;-80
2022/05/28 09:11:39;;;;;;;3.35;1.30;;;14.60;89.60;;;;;;4933573;29;20208;-81
2022/05/28 09:14:24;;;;;;;4.90;1.52;;;14.70;84.10;;;;;;4925219;29;20207;-80
2022/05/28 09:16:54;;;;;;;5.45;1.63;;;14.80;86.40;;;;;;4913992;29;20215;-78
2022/05/28 09:19:24;;;;;;;4.28;1.48;;;15.00;88.30;;;;;;4916040;29;20198;-78
2022/05/28 09:21:53;;;;;;;4.95;1.33;;;15.00;87.80;;;;;;4914306;29;20226;-78
2022/05/28 09:24:24;;;;;;;4.75;1.20;;;14.90;89.40;;;;;;4915367;29;20203;-78
2022/05/28 09:27:03;;;;;;;4.60;1.52;;;14.60;90.00;;;;;;4913081;29;20207;-78
2022/05/28 09:30:01;;;;;;;5.00;1.45;;;14.50;91.50;;;;;;4918985;29;20203;-78
2022/05/28 09:32:39;;;;;;;4.85;1.60;;;14.70;92.20;;;;;;4891717;29;20229;-77
2022/05/28 09:35:14;;;;;;;2.22;1.30;;;14.60;90.90;;;;;;4928889;29;20211;-78
2022/05/28 09:37:53;;;;;;;7.70;1.60;;;14.50;91.30;;;;;;4921842;29;20234;-77
2022/05/28 09:40:26;;;;;;;5.85;1.42;;;14.40;91.90;;;;;;4914078;29;20203;-78
2022/05/28 09:43:41;;;;;;;5.40;1.45;;;14.50;92.20;;;;;;4920767;29;20203;-78
2022/05/28 09:46:18;;;;;;;2.72;1.33;;;14.90;92.80;;;;;;4856496;29;20205;-78
2022/05/28 09:48:47;;;;;;;3.80;1.30;;;15.20;91.40;;;;;;4914512;29;20222;-78
2022/05/28 09:51:25;;;;;;;4.13;1.77;;;15.20;90.10;;;;;;4911629;29;20206;-78
2022/05/28 09:54:20;;;;;;;4.78;1.50;;;15.10;86.40;;;;;;4917887;29;20567;-78
2022/05/28 09:56:57;;;;;;;3.88;1.30;;;15.00;86.10;;;;;;4912471;29;20206;-78
2022/05/28 09:59:32;;;;;;;3.35;1.45;;;14.90;86.40;;;;;;4913988;29;20209;-78
2022/05/28 10:02:07;;;;;;;4.55;1.33;;;15.20;88.30;;;;;;4910537;29;20210;-78
2022/05/28 10:04:45;;;;;;;3.58;1.30;;;15.10;88.00;;;;;;4914614;29;20210;-78
2022/05/28 10:07:15;;;;;;;7.63;2.00;;;15.10;89.50;;;;;;4913197;29;20234;-78
2022/05/28 10:09:53;;;;;;;5.82;1.42;;;15.10;89.70;;;;;;4916470;29;20222;-77
2022/05/28 10:12:24;;;;;;;5.10;1.88;;;14.90;92.10;;;;;;4913015;29;20202;-78
2022/05/28 10:15:03;;;;;;;6.10;1.65;;;14.70;92.80;;;;;;4918018;29;20207;-77
2022/05/28 10:17:32;;;;;;;3.72;1.60;;;14.70;91.20;;;;;;4914734;29;20218;-77
2022/05/28 10:20:04;;;;;;;4.43;1.70;;;14.60;90.60;;;;;;4918883;29;20214;-77
2022/05/28 10:22:32;;;;;;;3.92;1.50;;;14.60;90.30;;;;;;4918370;29;20223;-77
2022/05/28 10:25:05;;;;;;;5.63;1.60;;;14.70;89.90;;;;;;4918305;29;20208;-77
2022/05/28 10:27:39;;;;;;;5.55;1.80;;;14.70;89.20;;;;;;4918418;29;20223;-77
2022/05/28 10:30:24;;;;;;;5.85;1.40;;;15.00;85.30;;;;;;4918635;29;20227;-77
2022/05/28 10:32:52;;;;;;;3.80;1.45;;;15.20;83.00;;;;;;4916335;29;20214;-77
2022/05/28 10:35:22;;;;;;;3.28;1.23;;;15.40;81.80;;;;;;4916916;29;20568;-77
2022/05/28 10:37:50;;;;;;;5.35;1.20;;;15.70;81.70;;;;;;4917475;29;20230;-77
2022/05/28 10:40:23;;;;;;;4.63;1.05;;;15.80;81.70;;;;;;4917299;29;20210;-77
2022/05/28 10:42:56;;;;;;;9.57;1.65;;;15.60;82.80;;;;;;4908546;29;20575;-77
2022/05/28 10:45:27;;;;;;;5.15;1.35;;;15.40;83.80;;;;;;4919495;29;20217;-77
2022/05/28 10:48:11;;;;;;;6.78;1.90;;;15.10;88.00;;;;;;4916337;29;20685;-79
2022/05/28 10:50:47;;;;;;;7.03;1.88;;;14.90;91.20;;;;;;4922076;29;20226;-80
2022/05/28 10:53:22;;;;;;;7.15;2.08;;;14.60;92.60;;;;;;4917110;29;20210;-79
2022/05/28 10:56:12;;;;;;;8.18;2.00;;;14.60;93.50;;;;;;4924906;29;20203;-80
2022/05/28 10:58:50;;;;;;;5.85;1.85;;;14.70;93.20;;;;;;4916350;29;20222;-78
2022/05/28 11:01:39;;;;;;;7.28;1.77;;;14.70;93.00;;;;;;4914814;29;20195;-78
2022/05/28 11:04:29;;;;;;;4.82;1.58;;;14.90;92.70;;;;;;4916815;29;20203;-77
2022/05/28 11:07:16;;;;;;;4.70;1.88;;;15.10;91.50;;;;;;4917464;29;20206;-77
2022/05/28 11:09:55;;;;;;;3.00;1.50;;;15.50;91.10;;;;;;4916775;29;20226;-77
2022/05/28 11:12:41;;;;;;;4.85;1.73;;;15.70;90.10;;;;;;4917014;29;20226;-77
2022/05/28 11:15:22;;;;;;;5.63;1.50;;;16.10;89.70;;;;;;4911951;29;20210;-78
2022/05/28 11:18:22;;;;;;;4.50;1.42;;;16.00;87.70;;;;;;4923064;29;20225;-78
2022/05/28 11:20:58;;;;;;;3.22;1.27;;;16.10;85.50;;;;;;4917957;29;20199;-77
2022/05/28 11:24:09;;;;;;;5.78;1.88;;;15.90;85.90;;;;;;4913770;29;20205;-77
2022/05/28 11:26:44;;;;;;;3.65;1.50;;;15.70;87.70;;;;;;4897000;29;20572;-77
2022/05/28 11:29:30;;;;;;;4.97;1.30;;;15.50;89.40;;;;;;4914343;29;20229;-78
2022/05/28 11:32:01;;;;;;;3.25;1.20;;;15.50;90.20;;;;;;4916360;29;20206;-77
2022/05/28 11:34:34;;;;;;;4.10;1.40;;;15.20;90.10;;;;;;4915241;29;20222;-77
2022/05/28 11:37:07;;;;;;;3.47;1.30;;;15.50;86.80;;;;;;4915710;29;20227;-77
2022/05/28 11:39:42;;;;;;;6.00;1.27;;;16.00;80.30;;;;;;4918239;29;20224;-77
2022/05/28 11:42:22;;;;;;;2.45;1.05;;;16.50;76.10;;;;;;4915980;29;20214;-77
2022/05/28 11:44:57;;;;;;;6.20;1.33;;;16.30;73.90;;;;;;4919117;29;20214;-77
2022/05/28 11:47:39;;;;;;;4.30;1.27;;;16.70;76.10;;;;;;4916352;29;20237;-77
2022/05/28 11:53:02;;;;;;;4.18;1.35;;;16.80;69.20;;;;;;4925865;29;20202;-77
2022/05/28 11:55:35;;;;;;;2.90;1.05;;;16.40;72.50;;;;;;4916990;29;20218;-77
2022/05/28 11:58:05;;;;;;;6.88;1.60;;;16.20;74.70;;;;;;4916601;29;20590;-77
2022/05/28 12:00:38;;;;;;;5.53;1.80;;;16.00;77.80;;;;;;4916501;29;20202;-77
2022/05/28 12:03:16;;;;;;;4.82;1.67;;;15.90;80.20;;;;;;4916559;29;20254;-77
2022/05/28 12:05:50;;;;;;;2.92;1.30;;;15.80;80.60;;;;;;4917124;29;20210;-77
2022/05/28 12:08:27;;;;;;;3.13;1.65;;;16.30;75.40;;;;;;4916215;29;20235;-78
2022/05/28 12:10:59;;;;;;;4.13;1.38;;;16.60;71.00;;;;;;4924163;29;20225;-77
2022/05/28 12:13:53;;;;;;;5.68;1.38;;;17.00;68.30;;;;;;4919996;29;20558;-77
2022/05/28 12:16:59;;;;;;;2.42;1.15;;;17.00;67.20;;;;;;4916450;29;20203;-77
2022/05/28 12:19:28;;;;;;;5.05;1.65;;;17.30;67.50;;;;;;4904766;29;20573;-77
2022/05/28 12:22:08;;;;;;;2.90;1.67;;;17.20;65.20;;;;;;4912675;29;20281;-77
2022/05/28 12:24:47;;;;;;;4.93;1.77;;;17.30;64.70;;;;;;4912933;29;20206;-77
2022/05/28 12:27:22;;;;;;;4.18;1.40;;;17.00;62.10;;;;;;4911673;29;20566;-77
2022/05/28 12:29:58;;;;;;;3.95;1.42;;;16.90;62.80;;;;;;4907454;29;20196;-77
2022/05/28 12:32:43;;;;;;;3.38;1.63;;;16.80;64.50;;;;;;4912980;29;20661;-77
2022/05/28 12:35:26;;;;;;;3.80;1.63;;;17.00;66.60;;;;;;4911601;29;20584;-77
2022/05/28 12:38:00;;;;;;;4.30;1.63;;;16.70;64.50;;;;;;4908916;29;20227;-77
2022/05/28 12:40:34;;;;;;;4.78;1.42;;;16.40;57.90;;;;;;4913310;29;20206;-77
2022/05/28 12:43:13;;;;;;;3.45;1.30;;;16.20;57.30;;;;;;4917972;29;20555;-77
2022/05/28 12:45:42;;;;;;;1.55;1.25;;;16.60;56.70;;;;;;4904884;29;20199;-77
2022/05/28 12:48:14;;;;;;;2.03;1.13;;;17.20;56.80;;;;;;4902744;29;20230;-77
2022/05/28 12:51:12;;;;;;;3.25;1.40;;;17.70;54.00;;;;;;4910861;29;20591;-77
2022/05/28 12:53:51;;;;;;;2.70;1.38;;;18.10;53.00;;;;;;4910072;29;20199;-77
2022/05/28 12:56:42;;;;;;;4.22;1.15;;;17.90;51.10;;;;;;4913410;29;20210;-78
2022/05/28 12:59:13;;;;;;;2.30;1.08;;;18.20;50.50;;;;;;4913965;29;20230;-78
2022/05/28 13:01:54;;;;;;;2.85;1.10;;;18.40;49.40;;;;;;4914409;29;20210;-77
2022/05/28 13:04:22;;;;;;;3.05;1.02;;;17.90;50.90;;;;;;4916789;29;20214;-77
2022/05/28 13:06:53;;;;;;;5.07;2.30;;;17.60;51.20;;;;;;4905663;29;20210;-78
2022/05/28 13:09:27;;;;;;;4.90;1.63;;;17.40;52.90;;;;;;4911354;29;20210;-77
2022/05/28 13:11:58;;;;;;;4.82;2.00;;;17.30;53.50;;;;;;4913474;29;20215;-78
2022/05/28 13:14:57;;;;;;;8.27;2.03;;;17.40;54.60;;;;;;4917373;29;20203;-78
2022/05/28 13:17:40;;;;;;;2.78;1.60;;;17.40;55.40;;;;;;4903294;29;20641;-78
2022/05/28 13:20:43;;;;;;;5.45;1.52;;;17.30;54.60;;;;;;4912333;29;20198;-78
2022/05/28 13:23:43;;;;;;;2.55;0.82;;;17.20;53.00;;;;;;4912386;29;20208;-78
2022/05/28 13:26:44;;;;;;;2.20;1.45;;;17.60;52.60;;;;;;4912809;29;20214;-78
2022/05/28 13:29:31;;;;;;;3.80;1.48;;;17.60;52.20;;;;;;4896532;29;20233;-78
2022/05/28 13:32:06;;;;;;;4.32;1.98;;;17.70;52.20;;;;;;4915299;29;20214;-78
2022/05/28 13:34:36;;;;;;;2.75;1.70;;;17.40;53.10;;;;;;4914682;29;20210;-77
2022/05/28 13:37:05;;;;;;;2.90;1.10;;;17.20;51.80;;;;;;4911471;29;20210;-78
2022/05/28 13:39:44;;;;;;;3.55;1.35;;;17.20;51.10;;;;;;4923326;29;20207;-78
2022/05/28 13:42:12;;;;;;;5.07;1.42;;;17.00;50.90;;;;;;4906662;29;20191;-79
2022/05/28 13:44:43;;;;;;;2.85;1.30;;;17.10;51.50;;;;;;4914657;29;20210;-80
2022/05/28 13:47:11;;;;;;;5.80;1.70;;;17.00;52.30;;;;;;4915670;29;20207;-78
2022/05/28 13:49:39;;;;;;;3.25;1.52;;;16.70;52.50;;;;;;4909378;29;20682;-79
2022/05/28 13:52:17;;;;;;;4.28;1.38;;;16.90;53.10;;;;;;4918263;29;20234;-80
2022/05/28 13:54:56;;;;;;;3.25;1.42;;;17.30;52.60;;;;;;4919049;29;20222;-78
2022/05/28 13:57:35;;;;;;;4.07;1.48;;;18.00;52.50;;;;;;4918553;29;20231;-78
2022/05/28 14:00:06;;;;;;;2.30;1.30;;;18.00;51.10;;;;;;4920889;29;20190;-78
2022/05/28 14:02:33;;;;;;;2.85;1.48;;;18.30;46.60;;;;;;4924737;29;20199;-78
2022/05/28 14:05:01;;;;;;;3.95;2.10;;;18.60;47.30;;;;;;4919680;29;20202;-78
2022/05/28 14:07:31;;;;;;;4.10;1.45;;;18.40;48.40;;;;;;4919495;29;20233;-78
2022/05/28 14:10:03;;;;;;;4.53;1.67;;;18.50;47.70;;;;;;4919720;29;20222;-78
2022/05/28 14:12:32;;;;;;;2.85;1.30;;;18.10;49.00;;;;;;4919452;29;20580;-78
2022/05/28 14:15:05;;;;;;;4.03;1.80;;;17.70;49.40;;;;;;4919713;29;20211;-78
2022/05/28 14:17:35;;;;;;;4.85;1.67;;;17.40;50.30;;;;;;4919875;29;20234;-78
2022/05/28 14:20:05;;;;;;;4.85;1.55;;;17.20;51.30;;;;;;4919159;29;20207;-78
2022/05/28 14:22:36;;;;;;;7.93;1.95;;;17.10;52.00;;;;;;4919197;29;20203;-78
2022/05/28 14:25:07;;;;;;;4.35;1.52;;;17.20;52.50;;;;;;4919354;29;20577;-78
2022/05/28 14:27:35;;;;;;;4.40;1.48;;;17.20;51.40;;;;;;4921325;29;20219;-78
2022/05/28 14:30:06;;;;;;;3.15;1.48;;;17.30;50.10;;;;;;4920450;29;20207;-78
2022/05/28 14:32:40;;;;;;;4.43;1.63;;;17.20;48.50;;;;;;4920533;29;20226;-78
2022/05/28 14:35:12;;;;;;;3.72;1.35;;;17.10;49.40;;;;;;4919229;29;20210;-78
2022/05/28 14:37:40;;;;;;;5.57;1.67;;;17.40;48.70;;;;;;4919204;29;20227;-78
2022/05/28 14:40:23;;;;;;;3.13;1.40;;;18.20;49.10;;;;;;4917550;29;20309;-78
2022/05/28 14:42:56;;;;;;;3.70;1.60;;;17.90;48.80;;;;;;4925887;29;20207;-80
2022/05/28 14:45:26;;;;;;;4.25;1.58;;;17.70;48.50;;;;;;4922765;29;20206;-80
2022/05/28 14:47:55;;;;;;;3.30;1.10;;;17.80;49.20;;;;;;4919137;29;20239;-79
2022/05/28 14:50:29;;;;;;;3.35;1.52;;;17.60;49.40;;;;;;4896937;29;20207;-79
2022/05/28 14:52:57;;;;;;;6.70;2.60;;;17.60;49.70;;;;;;4919804;29;20227;-80
2022/05/28 14:55:34;;;;;;;2.47;1.58;;;18.30;49.40;;;;;;4887797;29;20560;-79
2022/05/28 14:58:15;;;;;;;2.63;1.40;;;18.10;48.30;;;;;;4918333;29;20223;-79
2022/05/28 15:00:43;;;;;;;3.33;1.38;;;18.30;48.40;;;;;;4916273;29;20203;-79
2022/05/28 15:03:12;;;;;;;4.47;1.42;;;18.70;48.30;;;;;;4921824;29;20677;-79
2022/05/28 15:05:40;;;;;;;3.45;1.27;;;19.00;47.00;;;;;;4920402;29;20219;-79
2022/05/28 15:08:23;;;;;;;6.38;1.92;;;18.80;47.30;;;;;;4917774;29;20227;-78
2022/05/28 15:10:54;;;;;;;2.92;1.20;;;18.70;46.00;;;;;;4918057;29;20214;-79
2022/05/28 15:13:25;;;;;;;3.20;1.65;;;18.40;47.10;;;;;;4918411;29;20222;-79
2022/05/28 15:15:55;;;;;;;4.88;1.55;;;18.00;47.30;;;;;;4915370;29;20203;-79
2022/05/28 15:18:24;;;;;;;3.55;1.40;;;17.90;47.60;;;;;;4912387;29;20216;-79
2022/05/28 15:20:53;;;;;;;4.72;1.65;;;18.00;49.00;;;;;;4917983;29;20210;-80
2022/05/28 15:23:21;;;;;;;5.80;1.85;;;18.30;48.10;;;;;;4919849;29;20199;-79
2022/05/28 15:25:49;;;;;;;2.70;1.50;;;18.00;47.50;;;;;;4922836;29;20214;-79
2022/05/28 15:28:19;;;;;;;4.47;2.00;;;18.20;47.90;;;;;;4917082;29;20230;-79
2022/05/28 15:30:46;;;;;;;4.18;1.70;;;18.10;45.70;;;;;;4918708;29;20214;-79
2022/05/28 15:33:18;;;;;;;2.03;1.30;;;18.10;45.50;;;;;;4911675;29;20234;-79
2022/05/28 15:38:39;;;;;;;2.22;1.38;;;18.10;45.00;;;;;;4914515;29;20585;-81
2022/05/28 15:41:10;;;;;;;4.22;2.03;;;18.30;46.50;;;;;;4921156;29;20203;-80
2022/05/28 15:43:39;;;;;;;5.13;1.60;;;18.40;48.60;;;;;;4926006;29;20565;-81
2022/05/28 15:46:09;;;;;;;2.13;1.48;;;19.00;48.20;;;;;;4916327;29;20219;-80
2022/05/28 15:48:37;;;;;;;4.03;1.42;;;19.30;48.50;;;;;;4919254;29;20218;-81
2022/05/28 15:51:05;;;;;;;4.30;1.50;;;19.50;45.90;;;;;;4917617;29;20234;-81
2022/05/28 15:53:32;;;;;;;4.45;1.38;;;19.20;45.40;;;;;;4920635;29;20207;-80
2022/05/28 15:56:12;;;;;;;2.53;1.35;;;18.80;45.20;;;;;;4910348;29;20203;-81
2022/05/28 15:58:42;;;;;;;3.88;1.67;;;18.40;45.70;;;;;;4918898;29;20218;-80
2022/05/28 16:01:14;;;;;;;5.70;1.67;;;18.10;45.90;;;;;;4917452;29;20203;-81
2022/05/28 16:03:41;;;;;;;2.58;1.83;;;18.10;45.40;;;;;;4917409;29;20194;-81
2022/05/28 16:06:16;;;;;;;4.63;1.58;;;17.80;45.40;;;;;;4912460;29;20207;-82
2022/05/28 16:08:49;;;;;;;2.63;1.33;;;17.60;45.70;;;;;;4914240;29;20223;-82
2022/05/28 16:14:52;;;;;;;4.22;1.40;;;17.40;45.70;;;;;;4907708;29;20195;-79
2022/05/28 16:17:19;;;;;;;3.13;1.80;;;17.80;45.70;;;;;;4912575;29;20234;-79
2022/05/28 16:19:47;;;;;;;3.53;1.48;;;17.90;45.30;;;;;;4919752;29;20218;-79
2022/05/28 16:22:14;;;;;;;3.72;1.20;;;18.30;43.80;;;;;;4930890;29;20202;-79
2022/05/28 16:24:47;;;;;;;2.35;1.58;;;18.50;43.20;;;;;;4914730;29;20203;-79
2022/05/28 16:27:15;;;;;;;3.90;1.60;;;18.30;42.00;;;;;;4915426;29;20245;-79
2022/05/28 16:29:42;;;;;;;3.42;1.42;;;18.60;42.00;;;;;;4917234;29;20218;-79
2022/05/28 16:32:11;;;;;;;5.75;1.73;;;18.40;42.00;;;;;;4917627;29;20654;-79
2022/05/28 16:34:38;;;;;;;3.80;1.58;;;18.60;42.60;;;;;;4915862;29;20211;-79
2022/05/28 16:37:06;;;;;;;3.88;1.45;;;18.40;43.10;;;;;;4911915;29;20214;-79
2022/05/28 16:39:33;;;;;;;3.60;1.58;;;18.70;43.50;;;;;;4919390;29;20207;-79
2022/05/28 16:42:03;;;;;;;5.22;1.50;;;19.00;44.40;;;;;;4917022;29;20669;-79
2022/05/28 16:44:30;;;;;;;1.92;1.27;;;19.20;44.60;;;;;;4916419;29;20199;-79
2022/05/28 16:46:58;;;;;;;3.05;1.60;;;19.40;44.10;;;;;;4913376;29;20199;-79
2022/05/28 16:49:26;;;;;;;2.80;1.48;;;18.60;44.40;;;;;;4918525;29;20222;-79